createdAt,value
2023-01-19T08:32:46.085Z,16.39
2023-01-19T08:32:57.693Z,16.43
2023-01-19T08:33:08.991Z,16.45
2023-01-19T08:33:20.539Z,16.49
2023-01-19T08:33:31.837Z,16.50
2023-01-19T08:33:43.382Z,16.52
2023-01-19T08:33:54.668Z,16.53
2023-01-19T08:34:06.205Z,16.55
2023-01-19T08:34:17.498Z,16.55
2023-01-19T08:34:29.055Z,16.57
2023-01-19T08:34:40.374Z,16.58
2023-01-19T08:34:51.920Z,16.59
2023-01-19T08:35:03.207Z,16.60
2023-01-19T08:35:14.762Z,16.61
2023-01-19T08:35:26.046Z,16.62
2023-01-19T08:35:37.589Z,16.63
2023-01-19T08:35:48.884Z,16.64
2023-01-19T08:36:00.438Z,16.66
2023-01-19T08:36:11.733Z,16.66
2023-01-19T08:36:23.277Z,16.67
2023-01-19T08:36:34.586Z,16.68
2023-01-19T08:36:46.136Z,16.69
2023-01-19T08:36:57.425Z,16.69
2023-01-19T08:37:08.962Z,16.71
2023-01-19T08:37:20.249Z,16.71
2023-01-19T08:37:34.056Z,16.71
2023-01-19T08:37:43.422Z,16.72
2023-01-19T08:37:54.983Z,16.73
2023-01-19T08:38:06.267Z,16.73
2023-01-19T08:38:17.813Z,16.74
2023-01-19T08:38:29.104Z,16.74
2023-01-19T08:38:40.664Z,16.76
2023-01-19T08:38:51.958Z,16.76
2023-01-19T08:39:03.498Z,16.77
2023-01-19T08:39:14.776Z,16.77
2023-01-19T08:39:26.395Z,16.78
2023-01-19T08:39:37.712Z,16.79
2023-01-19T08:39:49.269Z,16.79
2023-01-19T08:40:00.570Z,16.80
2023-01-19T08:40:12.131Z,16.80
2023-01-19T08:40:23.417Z,16.81
2023-01-19T08:40:34.949Z,16.82
2023-01-19T08:40:46.241Z,16.83
2023-01-19T08:40:57.798Z,16.83
2023-01-19T08:41:09.150Z,16.83
2023-01-19T08:41:20.721Z,16.84
2023-01-19T08:41:32.006Z,16.85
2023-01-19T08:41:43.574Z,16.85
2023-01-19T08:41:54.860Z,16.85
2023-01-19T08:42:06.418Z,16.86
2023-01-19T08:42:18.760Z,16.87
2023-01-19T08:42:30.068Z,16.88
2023-01-19T08:42:41.645Z,16.88
2023-01-19T08:42:52.943Z,16.89
2023-01-19T08:43:04.521Z,16.89
2023-01-19T08:43:15.802Z,16.89
2023-01-19T08:43:27.351Z,16.91
2023-01-19T08:43:38.653Z,16.91
2023-01-19T08:43:50.230Z,16.91
2023-01-19T08:44:01.563Z,16.91
2023-01-19T08:44:13.117Z,16.93
2023-01-19T08:44:24.406Z,16.93
2023-01-19T08:44:37.881Z,16.94
2023-01-19T08:44:57.559Z,16.92
2023-01-19T08:44:59.795Z,16.93
2023-01-19T08:45:11.106Z,16.93
2023-01-19T08:45:22.646Z,16.95
2023-01-19T08:45:33.932Z,16.96
2023-01-19T08:45:45.472Z,16.96
2023-01-19T08:45:56.786Z,16.97
2023-01-19T08:46:08.422Z,16.98
2023-01-19T08:46:19.872Z,16.98
2023-01-19T08:46:31.536Z,16.99
2023-01-19T08:46:42.919Z,16.99
2023-01-19T08:46:54.474Z,17.00
2023-01-19T08:47:05.864Z,17.01
2023-01-19T08:47:17.523Z,17.01
2023-01-19T08:47:28.925Z,17.02
2023-01-19T08:47:40.587Z,17.03
2023-01-19T08:47:51.909Z,17.03
2023-01-19T08:48:03.461Z,17.04
2023-01-19T08:48:14.803Z,17.05
2023-01-19T08:48:26.363Z,17.05
2023-01-19T08:48:39.749Z,17.05
2023-01-19T08:48:49.127Z,17.05
2023-01-19T08:49:00.665Z,17.06
2023-01-19T08:49:11.947Z,17.07
2023-01-19T08:49:23.493Z,17.08
2023-01-19T08:49:34.781Z,17.08
2023-01-19T08:49:46.320Z,17.09
2023-01-19T08:49:57.609Z,17.09
2023-01-19T08:50:09.180Z,17.10
2023-01-19T08:50:20.473Z,17.11
2023-01-19T08:50:32.050Z,17.11
2023-01-19T08:50:43.402Z,17.11
2023-01-19T08:50:54.947Z,17.13
2023-01-19T08:51:06.225Z,17.13
2023-01-19T08:51:17.767Z,17.13
2023-01-19T08:51:29.065Z,17.15
2023-01-19T08:51:40.628Z,17.15
2023-01-19T08:51:51.919Z,17.16
2023-01-19T08:52:03.472Z,17.17
2023-01-19T08:52:14.768Z,17.17
2023-01-19T08:52:26.332Z,17.18
2023-01-19T08:52:37.632Z,17.18
2023-01-19T08:52:49.191Z,17.18
2023-01-19T08:53:00.957Z,17.20
2023-01-19T08:53:12.795Z,17.20
2023-01-19T08:53:24.119Z,17.20
2023-01-19T08:53:35.673Z,17.21
2023-01-19T08:53:46.980Z,17.22
2023-01-19T08:53:58.529Z,17.23
2023-01-19T08:54:09.823Z,17.23
2023-01-19T08:54:21.389Z,17.24
2023-01-19T08:54:32.669Z,17.25
2023-01-19T08:54:44.223Z,17.25
2023-01-19T08:54:55.532Z,17.25
2023-01-19T08:55:07.065Z,17.26
2023-01-19T08:55:18.358Z,17.26
2023-01-19T08:55:29.912Z,17.28
2023-01-19T08:55:41.201Z,17.29
2023-01-19T08:55:52.759Z,17.29
2023-01-19T08:56:04.048Z,17.30
2023-01-19T08:56:15.584Z,17.31
2023-01-19T08:56:26.884Z,17.31
2023-01-19T08:56:38.436Z,17.32
2023-01-19T08:56:49.730Z,17.33
2023-01-19T08:57:01.285Z,17.34
2023-01-19T08:57:12.584Z,17.34
2023-01-19T08:57:24.154Z,17.35
2023-01-19T08:57:35.466Z,17.35
2023-01-19T08:57:47.010Z,17.36
2023-01-19T08:57:58.434Z,17.37
2023-01-19T08:58:10.049Z,17.37
2023-01-19T08:58:21.338Z,17.37
2023-01-19T08:58:32.924Z,17.39
2023-01-19T08:58:44.227Z,17.40
2023-01-19T08:59:08.186Z,17.40
2023-01-19T08:59:10.413Z,17.39
2023-01-19T08:59:17.991Z,17.40
2023-01-19T08:59:29.299Z,17.40
2023-01-19T08:59:40.851Z,17.42
2023-01-19T08:59:52.182Z,17.43
2023-01-19T09:00:03.910Z,17.43
2023-01-19T09:00:15.227Z,17.44
2023-01-19T09:00:26.768Z,17.45
2023-01-19T09:00:38.093Z,17.46
2023-01-19T09:00:49.689Z,17.47
2023-01-19T09:01:03.016Z,17.47
2023-01-19T09:01:13.132Z,17.46
2023-01-19T09:01:24.908Z,17.49
2023-01-19T09:01:36.305Z,17.48
2023-01-19T09:01:48.217Z,17.50
2023-01-19T09:01:59.700Z,17.50
2023-01-19T09:02:11.387Z,17.51
2023-01-19T09:02:22.874Z,17.52
2023-01-19T09:02:34.745Z,17.52
2023-01-19T09:02:46.152Z,17.53
2023-01-19T09:02:57.844Z,17.54
2023-01-19T09:03:09.243Z,17.55
2023-01-19T09:03:20.849Z,17.56
2023-01-19T09:03:32.239Z,17.56
2023-01-19T09:03:43.835Z,17.57
2023-01-19T09:03:55.122Z,17.57
2023-01-19T09:04:06.661Z,17.59
2023-01-19T09:04:17.961Z,17.60
2023-01-19T09:04:29.571Z,17.60
2023-01-19T09:04:40.856Z,17.60
2023-01-19T09:04:52.394Z,17.61
2023-01-19T09:05:03.689Z,17.62
2023-01-19T09:05:15.227Z,17.63
2023-01-19T09:05:26.524Z,17.64
2023-01-19T09:05:38.078Z,17.65
2023-01-19T09:05:49.360Z,17.65
2023-01-19T09:06:00.926Z,17.66
2023-01-19T09:06:12.222Z,17.67
2023-01-19T09:06:23.771Z,17.68
2023-01-19T09:06:35.054Z,17.68
2023-01-19T09:06:46.616Z,17.69
2023-01-19T09:06:57.902Z,17.69
2023-01-19T09:07:09.437Z,17.70
2023-01-19T09:07:20.736Z,17.70
2023-01-19T09:07:34.012Z,17.71
2023-01-19T09:07:42.787Z,17.72
2023-01-19T09:07:54.061Z,17.73
2023-01-19T09:08:05.602Z,17.73
2023-01-19T09:08:16.905Z,17.74
2023-01-19T09:08:28.463Z,17.75
2023-01-19T09:08:39.753Z,17.75
2023-01-19T09:08:51.344Z,17.77
2023-01-19T09:09:02.628Z,17.76
2023-01-19T09:09:14.173Z,17.78
2023-01-19T09:09:25.451Z,17.79
2023-01-19T09:09:37.016Z,17.80
2023-01-19T09:09:48.341Z,17.81
2023-01-19T09:09:59.875Z,17.81
2023-01-19T09:10:11.350Z,17.82
2023-01-19T09:10:22.900Z,17.83
2023-01-19T09:10:34.198Z,17.84
2023-01-19T09:10:45.765Z,17.84
2023-01-19T09:10:57.127Z,17.85
2023-01-19T09:11:08.676Z,17.86
2023-01-19T09:11:19.967Z,17.86
2023-01-19T09:11:31.551Z,17.88
2023-01-19T09:11:42.866Z,17.88
2023-01-19T09:11:54.419Z,17.89
2023-01-19T09:12:05.710Z,17.89
2023-01-19T09:12:17.250Z,17.90
2023-01-19T09:12:28.538Z,17.90
2023-01-19T09:12:40.079Z,17.91
2023-01-19T09:12:51.368Z,17.92
2023-01-19T09:13:02.927Z,17.94
2023-01-19T09:13:14.245Z,17.94
2023-01-19T09:13:25.803Z,17.95
2023-01-19T09:13:37.097Z,17.95
2023-01-19T09:13:48.687Z,17.96
2023-01-19T09:14:00.031Z,17.97
2023-01-19T09:14:11.575Z,17.98
2023-01-19T09:14:22.906Z,17.98
2023-01-19T09:14:34.501Z,17.99
2023-01-19T09:14:45.865Z,17.99
2023-01-19T09:14:57.423Z,18.00
2023-01-19T09:15:08.801Z,18.01
2023-01-19T09:15:20.370Z,18.02
2023-01-19T09:15:31.661Z,18.03
2023-01-19T09:15:43.506Z,18.04
2023-01-19T09:15:54.958Z,18.04
2023-01-19T09:16:06.546Z,18.04
2023-01-19T09:16:17.860Z,18.05
2023-01-19T09:16:29.427Z,18.06
2023-01-19T09:16:40.724Z,18.07
2023-01-19T09:16:52.287Z,18.08
2023-01-19T09:17:03.577Z,18.08
2023-01-19T09:17:15.136Z,18.09
2023-01-19T09:17:26.440Z,18.10
2023-01-19T09:17:38.001Z,18.10
2023-01-19T09:17:49.292Z,18.11
2023-01-19T09:18:01.329Z,18.13
2023-01-19T09:18:13.051Z,18.13
2023-01-19T09:18:24.349Z,18.14
2023-01-19T09:18:35.898Z,18.14
2023-01-19T09:18:47.194Z,18.16
2023-01-19T09:18:58.788Z,18.16
2023-01-19T09:19:10.128Z,18.17
2023-01-19T09:19:21.679Z,18.18
2023-01-19T09:19:34.927Z,18.18
2023-01-19T09:19:44.251Z,18.18
2023-01-19T09:19:55.796Z,18.19
2023-01-19T09:20:07.106Z,18.19
2023-01-19T09:20:18.721Z,18.20
2023-01-19T09:20:30.045Z,18.21
2023-01-19T09:20:41.593Z,18.22
2023-01-19T09:20:52.899Z,18.23
2023-01-19T09:21:04.458Z,18.24
2023-01-19T09:21:15.763Z,18.24
2023-01-19T09:21:27.318Z,18.25
2023-01-19T09:21:38.913Z,18.25
2023-01-19T09:21:50.477Z,18.26
2023-01-19T09:22:01.763Z,18.27
2023-01-19T09:22:13.308Z,18.28
2023-01-19T09:22:24.619Z,18.28
2023-01-19T09:22:36.176Z,18.29
2023-01-19T09:22:47.599Z,18.30
2023-01-19T09:22:59.182Z,18.30
2023-01-19T09:23:10.467Z,18.31
2023-01-19T09:23:21.998Z,18.32
2023-01-19T09:23:33.292Z,18.33
2023-01-19T09:23:44.836Z,18.33
2023-01-19T09:23:56.118Z,18.34
2023-01-19T09:24:07.655Z,18.35
2023-01-19T09:24:18.983Z,18.35
2023-01-19T09:24:30.526Z,18.36
2023-01-19T09:24:41.819Z,18.37
2023-01-19T09:24:53.355Z,18.38
2023-01-19T09:25:04.647Z,18.38
2023-01-19T09:25:16.227Z,18.39
2023-01-19T09:25:27.536Z,18.39
2023-01-19T09:25:39.084Z,18.40
2023-01-19T09:25:50.383Z,18.41
2023-01-19T09:26:01.925Z,18.42
2023-01-19T09:26:13.201Z,18.42
2023-01-19T09:26:24.742Z,18.43
2023-01-19T09:26:36.037Z,18.44
2023-01-19T09:26:47.579Z,18.45
2023-01-19T09:26:58.910Z,18.45
2023-01-19T09:27:10.450Z,18.47
2023-01-19T09:27:21.723Z,18.47
2023-01-19T09:27:33.280Z,18.47
2023-01-19T09:27:44.576Z,18.47
2023-01-19T09:27:56.122Z,18.48
2023-01-19T09:28:07.401Z,18.49
2023-01-19T09:28:18.951Z,18.50
2023-01-19T09:28:30.264Z,18.50
2023-01-19T09:28:41.832Z,18.52
2023-01-19T09:28:53.134Z,18.52
2023-01-19T09:29:04.688Z,18.53
2023-01-19T09:29:15.974Z,18.53
2023-01-19T09:29:27.571Z,18.54
2023-01-19T09:29:38.907Z,18.54
2023-01-19T09:29:50.483Z,18.55
2023-01-19T09:30:01.803Z,18.56
2023-01-19T09:30:13.344Z,18.57
2023-01-19T09:30:24.710Z,18.57
2023-01-19T09:30:36.311Z,18.59
2023-01-19T09:30:47.765Z,18.59
2023-01-19T09:30:59.528Z,18.60
2023-01-19T09:31:11.143Z,18.61
2023-01-19T09:31:22.871Z,18.61
2023-01-19T09:31:34.230Z,18.62
2023-01-19T09:31:45.856Z,18.62
2023-01-19T09:31:57.262Z,18.63
2023-01-19T09:32:08.821Z,18.63
2023-01-19T09:32:20.105Z,18.64
2023-01-19T09:32:31.647Z,18.66
2023-01-19T09:32:43.034Z,18.65
2023-01-19T09:32:54.592Z,18.66
2023-01-19T09:33:05.914Z,18.67
2023-01-19T09:33:17.503Z,18.67
2023-01-19T09:33:28.803Z,18.68
2023-01-19T09:33:40.352Z,18.68
2023-01-19T09:33:51.635Z,18.69
2023-01-19T09:34:03.177Z,18.70
2023-01-19T09:34:14.457Z,18.70
2023-01-19T09:34:25.998Z,18.71
2023-01-19T09:34:37.332Z,18.72
2023-01-19T09:34:48.864Z,18.73
2023-01-19T09:35:00.143Z,18.73
2023-01-19T09:35:11.675Z,18.74
2023-01-19T09:35:22.971Z,18.75
2023-01-19T09:35:34.512Z,18.76
2023-01-19T09:35:45.800Z,18.75
2023-01-19T09:35:57.379Z,18.77
2023-01-19T09:36:08.657Z,18.76
2023-01-19T09:36:20.194Z,18.78
2023-01-19T09:36:31.476Z,18.78
2023-01-19T09:36:43.028Z,18.80
2023-01-19T09:36:54.317Z,18.80
2023-01-19T09:37:05.875Z,18.80
2023-01-19T09:37:17.169Z,18.81
2023-01-19T09:37:28.734Z,18.81
2023-01-19T09:37:40.025Z,18.82
2023-01-19T09:37:51.569Z,18.82
2023-01-19T09:38:03.348Z,18.83
2023-01-19T09:38:15.039Z,18.84
2023-01-19T09:38:26.445Z,18.84
2023-01-19T09:38:38.017Z,18.85
2023-01-19T09:38:49.314Z,18.86
2023-01-19T09:39:00.853Z,18.86
2023-01-19T09:39:12.145Z,18.87
2023-01-19T09:39:23.700Z,18.87
2023-01-19T09:39:35.026Z,18.88
2023-01-19T09:39:46.676Z,18.88
2023-01-19T09:39:58.068Z,18.89
2023-01-19T09:40:09.650Z,18.90
2023-01-19T09:40:21.050Z,18.91
2023-01-19T09:40:32.654Z,18.92
2023-01-19T09:40:43.945Z,18.92
2023-01-19T09:40:55.503Z,18.93
2023-01-19T09:41:06.825Z,18.93
2023-01-19T09:41:18.371Z,18.94
2023-01-19T09:41:29.664Z,18.95
2023-01-19T09:41:41.220Z,18.95
2023-01-19T09:41:52.528Z,18.96
2023-01-19T09:42:04.075Z,18.96
2023-01-19T09:42:15.359Z,18.96
2023-01-19T09:42:26.954Z,18.97
2023-01-19T09:42:38.261Z,18.98
2023-01-19T09:42:49.823Z,18.98
2023-01-19T09:43:01.116Z,18.98
2023-01-19T09:43:12.670Z,18.99
2023-01-19T09:43:23.967Z,19.00
2023-01-19T09:43:35.528Z,19.00
2023-01-19T09:43:46.820Z,19.01
2023-01-19T09:43:58.396Z,19.02
2023-01-19T09:44:09.680Z,19.02
2023-01-19T09:44:21.225Z,19.02
2023-01-19T09:44:32.511Z,19.03
2023-01-19T09:44:44.062Z,19.03
2023-01-19T09:44:55.408Z,19.04
2023-01-19T09:45:07.011Z,19.04
2023-01-19T09:45:18.362Z,19.05
2023-01-19T09:45:29.911Z,19.06
2023-01-19T09:45:41.203Z,19.05
2023-01-19T09:45:52.752Z,19.07
2023-01-19T09:46:04.164Z,19.07
2023-01-19T09:46:15.884Z,19.07
2023-01-19T09:46:27.303Z,19.08
2023-01-19T09:46:39.042Z,19.09
2023-01-19T09:46:50.497Z,19.09
2023-01-19T09:47:02.072Z,19.10
2023-01-19T09:47:13.397Z,19.10
2023-01-19T09:47:24.941Z,19.12
2023-01-19T09:47:36.234Z,19.12
2023-01-19T09:47:47.953Z,19.12
2023-01-19T09:47:59.661Z,19.13
2023-01-19T09:48:11.419Z,19.14
2023-01-19T09:48:22.711Z,19.14
2023-01-19T09:48:34.256Z,19.15
2023-01-19T09:48:45.545Z,19.14
2023-01-19T09:48:57.086Z,19.15
2023-01-19T09:49:08.373Z,19.16
2023-01-19T09:49:19.916Z,19.17
2023-01-19T09:49:31.222Z,19.17
2023-01-19T09:49:42.769Z,19.18
2023-01-19T09:49:54.073Z,19.19
2023-01-19T09:50:05.661Z,19.19
2023-01-19T09:50:16.956Z,19.18
2023-01-19T09:50:28.498Z,19.20
2023-01-19T09:50:39.806Z,19.20
2023-01-19T09:50:51.364Z,19.22
2023-01-19T09:51:02.659Z,19.23
2023-01-19T09:51:14.190Z,19.22
2023-01-19T09:51:25.468Z,19.23
2023-01-19T09:51:37.026Z,19.24
2023-01-19T09:51:48.351Z,19.24
2023-01-19T09:51:59.909Z,19.25
2023-01-19T09:52:11.195Z,19.25
2023-01-19T09:52:22.733Z,19.26
2023-01-19T09:52:34.016Z,19.27
2023-01-19T09:52:45.587Z,19.27
2023-01-19T09:52:56.881Z,19.28
2023-01-19T09:53:08.419Z,19.28
2023-01-19T09:53:19.708Z,19.29
2023-01-19T09:53:31.236Z,19.30
2023-01-19T09:53:42.539Z,19.30
2023-01-19T09:53:54.136Z,19.30
2023-01-19T09:54:05.480Z,19.30
2023-01-19T09:54:17.069Z,19.31
2023-01-19T09:54:28.357Z,19.31
2023-01-19T09:54:39.897Z,19.31
2023-01-19T09:54:51.183Z,19.33
2023-01-19T09:55:02.729Z,19.33
2023-01-19T09:55:14.030Z,19.33
2023-01-19T09:55:25.577Z,19.34
2023-01-19T09:55:36.874Z,19.33
2023-01-19T09:55:48.428Z,19.35
2023-01-19T09:55:59.710Z,19.34
2023-01-19T09:56:11.254Z,19.35
2023-01-19T09:56:22.553Z,19.36
2023-01-19T09:56:34.103Z,19.35
2023-01-19T09:56:45.383Z,19.36
2023-01-19T09:56:56.910Z,19.36
2023-01-19T09:57:08.193Z,19.37
2023-01-19T09:57:19.735Z,19.37
2023-01-19T09:57:31.024Z,19.38
2023-01-19T09:57:42.575Z,19.37
2023-01-19T09:57:53.859Z,19.38
2023-01-19T09:58:05.400Z,19.39
2023-01-19T09:58:16.706Z,19.39
2023-01-19T09:58:28.237Z,19.40
2023-01-19T09:58:39.519Z,19.40
2023-01-19T09:58:51.160Z,19.41
2023-01-19T09:59:02.462Z,19.41
2023-01-19T09:59:14.013Z,19.41
2023-01-19T09:59:25.403Z,19.41
2023-01-19T09:59:36.967Z,19.42
2023-01-19T09:59:48.248Z,19.42
2023-01-19T09:59:59.978Z,19.43
2023-01-19T10:00:11.316Z,19.43
2023-01-19T10:00:22.911Z,19.43
2023-01-19T10:00:34.204Z,19.43
2023-01-19T10:00:45.815Z,19.44
2023-01-19T10:00:57.217Z,19.44
2023-01-19T10:01:08.903Z,19.45
2023-01-19T10:01:20.409Z,19.45
2023-01-19T10:01:34.575Z,19.45
2023-01-19T10:01:42.185Z,19.45
2023-01-19T10:01:53.613Z,19.45
2023-01-19T10:02:05.181Z,19.46
2023-01-19T10:02:16.468Z,19.47
2023-01-19T10:02:28.014Z,19.47
2023-01-19T10:02:39.381Z,19.47
2023-01-19T10:02:51.029Z,19.47
2023-01-19T10:03:02.796Z,19.49
2023-01-19T10:03:14.767Z,19.48
2023-01-19T10:03:26.163Z,19.48
2023-01-19T10:03:37.735Z,19.49
2023-01-19T10:03:49.030Z,19.49
2023-01-19T10:04:00.574Z,19.50
2023-01-19T10:04:11.859Z,19.50
2023-01-19T10:04:23.407Z,19.51
2023-01-19T10:04:34.708Z,19.51
2023-01-19T10:04:46.260Z,19.51
2023-01-19T10:04:57.556Z,19.52
2023-01-19T10:05:09.104Z,19.52
2023-01-19T10:05:20.409Z,19.52
2023-01-19T10:05:32.000Z,19.52
2023-01-19T10:05:43.295Z,19.53
2023-01-19T10:05:54.852Z,19.54
2023-01-19T10:06:06.138Z,19.54
2023-01-19T10:06:17.686Z,19.54
2023-01-19T10:06:29.017Z,19.55
2023-01-19T10:06:40.558Z,19.55
2023-01-19T10:06:51.844Z,19.55
2023-01-19T10:07:03.384Z,19.56
2023-01-19T10:07:14.673Z,19.56
2023-01-19T10:07:26.225Z,19.57
2023-01-19T10:07:37.535Z,19.57
2023-01-19T10:07:49.084Z,19.58
2023-01-19T10:08:00.728Z,19.57
2023-01-19T10:08:12.420Z,19.58
2023-01-19T10:08:23.713Z,19.59
2023-01-19T10:08:35.244Z,19.59
2023-01-19T10:08:46.551Z,19.59
2023-01-19T10:08:58.126Z,19.59
2023-01-19T10:09:09.412Z,19.60
2023-01-19T10:09:20.953Z,19.60
2023-01-19T10:09:32.253Z,19.60
2023-01-19T10:09:43.789Z,19.61
2023-01-19T10:09:55.067Z,19.61
2023-01-19T10:10:06.607Z,19.61
2023-01-19T10:10:17.885Z,19.62
2023-01-19T10:10:29.434Z,19.62
2023-01-19T10:10:40.774Z,19.62
2023-01-19T10:10:52.324Z,19.62
2023-01-19T10:11:03.625Z,19.62
2023-01-19T10:11:15.172Z,19.63
2023-01-19T10:11:34.347Z,19.63
2023-01-19T10:11:52.113Z,19.61
2023-01-19T10:11:53.002Z,19.61
2023-01-19T10:12:00.445Z,19.62
2023-01-19T10:12:11.922Z,19.62
2023-01-19T10:12:23.471Z,19.63
2023-01-19T10:12:34.758Z,19.64
2023-01-19T10:12:46.309Z,19.64
2023-01-19T10:12:57.593Z,19.64
2023-01-19T10:13:09.139Z,19.65
2023-01-19T10:13:20.732Z,19.65
2023-01-19T10:13:32.267Z,19.66
2023-01-19T10:13:43.551Z,19.66
2023-01-19T10:13:55.084Z,19.66
2023-01-19T10:14:06.409Z,19.67
2023-01-19T10:14:17.951Z,19.67
2023-01-19T10:14:29.238Z,19.67
2023-01-19T10:14:40.796Z,19.67
2023-01-19T10:14:52.114Z,19.67
2023-01-19T10:15:03.688Z,19.68
2023-01-19T10:15:14.977Z,19.68
2023-01-19T10:15:26.524Z,19.68
2023-01-19T10:15:37.833Z,19.68
2023-01-19T10:15:49.464Z,19.69
2023-01-19T10:16:00.825Z,19.69
2023-01-19T10:16:12.439Z,19.69
2023-01-19T10:16:23.771Z,19.70
2023-01-19T10:16:35.359Z,19.70
2023-01-19T10:16:46.656Z,19.71
2023-01-19T10:16:58.215Z,19.71
2023-01-19T10:17:09.492Z,19.70
2023-01-19T10:17:21.031Z,19.72
2023-01-19T10:17:32.350Z,19.71
2023-01-19T10:17:43.891Z,19.72
2023-01-19T10:17:55.167Z,19.72
2023-01-19T10:18:06.716Z,19.73
2023-01-19T10:18:18.170Z,19.73
2023-01-19T10:18:29.728Z,19.73
2023-01-19T10:18:41.021Z,19.73
2023-01-19T10:18:52.564Z,19.74
2023-01-19T10:19:03.856Z,19.74
2023-01-19T10:19:15.407Z,19.74
2023-01-19T10:19:26.706Z,19.75
2023-01-19T10:19:38.300Z,19.74
2023-01-19T10:19:49.578Z,19.74
2023-01-19T10:20:01.125Z,19.75
2023-01-19T10:20:12.400Z,19.75
2023-01-19T10:20:23.967Z,19.76
2023-01-19T10:20:35.273Z,19.75
2023-01-19T10:20:46.822Z,19.76
2023-01-19T10:20:58.162Z,19.76
2023-01-19T10:21:10.019Z,19.76
2023-01-19T10:21:21.409Z,19.77
2023-01-19T10:21:33.167Z,19.76
2023-01-19T10:21:44.489Z,19.77
2023-01-19T10:21:56.073Z,19.77
2023-01-19T10:22:07.396Z,19.77
2023-01-19T10:22:18.940Z,19.78
2023-01-19T10:22:30.243Z,19.78
2023-01-19T10:22:41.798Z,19.78
2023-01-19T10:22:53.123Z,19.78
2023-01-19T10:23:05.008Z,19.78
2023-01-19T10:23:16.448Z,19.78
2023-01-19T10:23:28.012Z,19.79
2023-01-19T10:23:39.311Z,19.78
2023-01-19T10:23:50.881Z,19.80
2023-01-19T10:24:02.189Z,19.79
2023-01-19T10:24:13.858Z,19.80
2023-01-19T10:24:25.160Z,19.79
2023-01-19T10:24:36.705Z,19.80
2023-01-19T10:24:48.008Z,19.81
2023-01-19T10:24:59.612Z,19.81
2023-01-19T10:25:10.927Z,19.81
2023-01-19T10:25:22.598Z,19.81
2023-01-19T10:25:33.976Z,19.81
2023-01-19T10:25:45.611Z,19.81
2023-01-19T10:25:57.020Z,19.82
2023-01-19T10:26:08.674Z,19.82
2023-01-19T10:26:20.006Z,19.82
2023-01-19T10:26:31.561Z,19.82
2023-01-19T10:26:42.871Z,19.82
2023-01-19T10:26:54.418Z,19.83
2023-01-19T10:27:05.741Z,19.83
2023-01-19T10:27:17.343Z,19.84
2023-01-19T10:27:28.662Z,19.84
2023-01-19T10:27:40.209Z,19.84
2023-01-19T10:27:51.524Z,19.84
2023-01-19T10:28:03.098Z,19.84
2023-01-19T10:28:14.408Z,19.85
2023-01-19T10:28:25.985Z,19.86
2023-01-19T10:28:37.297Z,19.87
2023-01-19T10:28:48.902Z,19.86
2023-01-19T10:29:00.181Z,19.87
2023-01-19T10:29:11.897Z,19.87
2023-01-19T10:29:23.226Z,19.87
2023-01-19T10:29:34.871Z,19.88
2023-01-19T10:29:46.208Z,19.88
2023-01-19T10:29:57.767Z,19.88
2023-01-19T10:30:09.088Z,19.88
2023-01-19T10:30:20.642Z,19.88
2023-01-19T10:30:31.975Z,19.89
2023-01-19T10:30:43.552Z,19.89
2023-01-19T10:30:54.939Z,19.89
2023-01-19T10:31:06.629Z,19.89
2023-01-19T10:31:18.218Z,19.89
2023-01-19T10:31:29.921Z,19.90
2023-01-19T10:31:41.434Z,19.90
2023-01-19T10:31:53.213Z,19.90
2023-01-19T10:32:04.639Z,19.90
2023-01-19T10:32:16.271Z,19.91
2023-01-19T10:32:27.565Z,19.90
2023-01-19T10:32:39.278Z,19.91
2023-01-19T10:32:50.635Z,19.91
2023-01-19T10:33:02.674Z,19.92
2023-01-19T10:33:14.409Z,19.93
2023-01-19T10:33:25.738Z,19.92
2023-01-19T10:33:37.277Z,19.93
2023-01-19T10:33:48.610Z,19.93
2023-01-19T10:34:00.181Z,19.93
2023-01-19T10:34:11.594Z,19.93
2023-01-19T10:34:23.847Z,19.94
2023-01-19T10:34:35.505Z,19.95
2023-01-19T10:34:46.806Z,19.94
2023-01-19T10:34:58.360Z,19.94
2023-01-19T10:35:09.706Z,19.95
2023-01-19T10:35:21.257Z,19.95
2023-01-19T10:35:32.586Z,19.95
2023-01-19T10:35:44.158Z,19.95
2023-01-19T10:35:55.493Z,19.95
2023-01-19T10:36:07.104Z,19.95
2023-01-19T10:36:18.503Z,19.96
2023-01-19T10:36:30.055Z,19.96
2023-01-19T10:36:41.362Z,19.96
2023-01-19T10:36:52.900Z,19.96
2023-01-19T10:37:04.190Z,19.97
2023-01-19T10:37:15.870Z,19.98
2023-01-19T10:37:27.182Z,19.97
2023-01-19T10:37:38.732Z,19.98
2023-01-19T10:37:50.093Z,19.98
2023-01-19T10:38:01.705Z,19.98
2023-01-19T10:38:12.982Z,19.99
2023-01-19T10:38:24.539Z,19.98
2023-01-19T10:38:35.864Z,19.99
2023-01-19T10:38:47.429Z,19.99
2023-01-19T10:38:58.756Z,19.99
2023-01-19T10:39:10.329Z,20.00
2023-01-19T10:39:21.628Z,19.99
2023-01-19T10:39:36.991Z,20.00
2023-01-19T10:39:45.169Z,19.99
2023-01-19T10:39:56.459Z,20.00
2023-01-19T10:40:07.992Z,20.01
2023-01-19T10:40:19.364Z,20.00
2023-01-19T10:40:31.024Z,20.00
2023-01-19T10:40:43.054Z,20.02
2023-01-19T10:40:54.339Z,20.02
2023-01-19T10:41:05.892Z,20.01
2023-01-19T10:41:17.263Z,20.02
2023-01-19T10:41:28.990Z,20.02
2023-01-19T10:41:40.289Z,20.03
2023-01-19T10:41:51.823Z,20.03
2023-01-19T10:42:03.105Z,20.04
2023-01-19T10:42:14.693Z,20.03
2023-01-19T10:42:26.010Z,20.03
2023-01-19T10:42:37.616Z,20.05
2023-01-19T10:42:48.940Z,20.04
2023-01-19T10:43:00.949Z,20.04
2023-01-19T10:43:12.717Z,20.06
2023-01-19T10:43:24.052Z,20.05
2023-01-19T10:43:35.668Z,20.05
2023-01-19T10:43:46.950Z,20.05
2023-01-19T10:43:58.550Z,20.06
2023-01-19T10:44:09.879Z,20.06
2023-01-19T10:44:21.459Z,20.06
2023-01-19T10:44:32.778Z,20.06
2023-01-19T10:44:44.475Z,20.06
2023-01-19T10:44:55.799Z,20.07
2023-01-19T10:45:07.347Z,20.07
2023-01-19T10:45:18.648Z,20.07
2023-01-19T10:45:30.374Z,20.07
2023-01-19T10:45:41.733Z,20.07
2023-01-19T10:45:53.361Z,20.08
2023-01-19T10:46:04.777Z,20.07
2023-01-19T10:46:16.479Z,20.08
2023-01-19T10:46:27.792Z,20.08
2023-01-19T10:46:39.353Z,20.08
2023-01-19T10:46:50.634Z,20.09
2023-01-19T10:47:02.190Z,20.09
2023-01-19T10:47:13.478Z,20.09
2023-01-19T10:47:25.029Z,20.10
2023-01-19T10:47:36.358Z,20.09
2023-01-19T10:47:47.971Z,20.10
2023-01-19T10:47:59.318Z,20.10
2023-01-19T10:48:10.891Z,20.10
2023-01-19T10:48:22.174Z,20.10
2023-01-19T10:48:33.866Z,20.10
2023-01-19T10:48:45.199Z,20.11
2023-01-19T10:48:56.734Z,20.11
2023-01-19T10:49:08.082Z,20.11
2023-01-19T10:49:19.686Z,20.11
2023-01-19T10:49:31.025Z,20.11
2023-01-19T10:49:42.582Z,20.12
2023-01-19T10:49:53.898Z,20.12
2023-01-19T10:50:05.450Z,20.12
2023-01-19T10:50:16.783Z,20.12
2023-01-19T10:50:28.333Z,20.13
2023-01-19T10:50:39.890Z,20.13
2023-01-19T10:50:51.580Z,20.13
2023-01-19T10:51:02.872Z,20.13
2023-01-19T10:51:14.501Z,20.14
2023-01-19T10:51:25.792Z,20.14
2023-01-19T10:51:37.358Z,20.14
2023-01-19T10:51:48.834Z,20.14
2023-01-19T10:52:00.414Z,20.14
2023-01-19T10:52:11.771Z,20.14
2023-01-19T10:52:23.347Z,20.15
2023-01-19T10:52:34.623Z,20.15
2023-01-19T10:52:46.193Z,20.15
2023-01-19T10:52:57.578Z,20.15
2023-01-19T10:53:09.162Z,20.15
2023-01-19T10:53:20.526Z,20.16
2023-01-19T10:53:32.086Z,20.16
2023-01-19T10:53:43.388Z,20.16
2023-01-19T10:53:54.951Z,20.17
2023-01-19T10:54:06.280Z,20.17
2023-01-19T10:54:17.828Z,20.17
2023-01-19T10:54:29.122Z,20.17
2023-01-19T10:54:40.688Z,20.18
2023-01-19T10:54:51.979Z,20.17
2023-01-19T10:55:03.606Z,20.18
2023-01-19T10:55:14.909Z,20.18
2023-01-19T10:55:26.461Z,20.18
2023-01-19T10:55:37.796Z,20.19
2023-01-19T10:55:49.410Z,20.19
2023-01-19T10:56:00.753Z,20.19
2023-01-19T10:56:12.295Z,20.19
2023-01-19T10:56:23.632Z,20.20
2023-01-19T10:56:35.279Z,20.19
2023-01-19T10:56:46.638Z,20.20
2023-01-19T10:56:58.309Z,20.20
2023-01-19T10:57:09.609Z,20.20
2023-01-19T10:57:21.212Z,20.21
2023-01-19T10:57:32.585Z,20.20
2023-01-19T10:57:44.149Z,20.21
2023-01-19T10:57:55.445Z,20.21
2023-01-19T10:58:07.006Z,20.21
2023-01-19T10:58:19.032Z,20.21
2023-01-19T10:58:30.571Z,20.21
2023-01-19T10:58:41.877Z,20.22
2023-01-19T10:58:53.496Z,20.22
2023-01-19T10:59:04.879Z,20.21
2023-01-19T10:59:16.493Z,20.22
2023-01-19T10:59:27.844Z,20.22
2023-01-19T10:59:39.379Z,20.22
2023-01-19T10:59:50.824Z,20.22
2023-01-19T11:00:02.659Z,20.23
2023-01-19T11:00:13.934Z,20.23